sensor_id;sensor_type;location;lat;lon;timestamp;P1;durP1;ratioP1;P2;durP2;ratioP2
85137;SDS011;75497;42.708;23.330;2024-02-04T00:01:40;7.00;;;2.60;;
85137;SDS011;75497;42.708;23.330;2024-02-04T00:04:06;7.45;;;2.08;;
85137;SDS011;75497;42.708;23.330;2024-02-04T00:06:32;7.40;;;2.58;;
85137;SDS011;75497;42.708;23.330;2024-02-04T00:08:58;8.13;;;2.78;;
85137;SDS011;75497;42.708;23.330;2024-02-04T00:11:23;8.80;;;2.67;;
85137;SDS011;75497;42.708;23.330;2024-02-04T00:13:49;7.03;;;3.03;;
85137;SDS011;75497;42.708;23.330;2024-02-04T00:16:14;7.90;;;2.67;;
85137;SDS011;75497;42.708;23.330;2024-02-04T00:18:40;6.55;;;2.70;;
85137;SDS011;75497;42.708;23.330;2024-02-04T00:21:06;6.53;;;3.00;;
85137;SDS011;75497;42.708;23.330;2024-02-04T00:23:31;8.80;;;2.92;;
85137;SDS011;75497;42.708;23.330;2024-02-04T00:25:57;9.90;;;3.65;;
85137;SDS011;75497;42.708;23.330;2024-02-04T00:28:22;8.35;;;3.50;;
85137;SDS011;75497;42.708;23.330;2024-02-04T00:30:48;7.75;;;2.80;;
85137;SDS011;75497;42.708;23.330;2024-02-04T00:33:15;8.30;;;3.05;;
85137;SDS011;75497;42.708;23.330;2024-02-04T00:35:41;6.63;;;2.80;;
85137;SDS011;75497;42.708;23.330;2024-02-04T00:38:07;10.77;;;3.33;;
85137;SDS011;75497;42.708;23.330;2024-02-04T00:40:33;9.05;;;2.40;;
85137;SDS011;75497;42.708;23.330;2024-02-04T00:42:59;7.03;;;3.20;;
85137;SDS011;75497;42.708;23.330;2024-02-04T00:45:25;7.82;;;3.17;;
85137;SDS011;75497;42.708;23.330;2024-02-04T00:47:51;7.13;;;3.20;;
85137;SDS011;75497;42.708;23.330;2024-02-04T00:50:17;8.02;;;3.00;;
85137;SDS011;75497;42.708;23.330;2024-02-04T00:52:43;8.02;;;3.05;;
85137;SDS011;75497;42.708;23.330;2024-02-04T00:55:08;7.07;;;3.45;;
85137;SDS011;75497;42.708;23.330;2024-02-04T00:57:34;9.50;;;3.47;;
85137;SDS011;75497;42.708;23.330;2024-02-04T00:59:59;6.97;;;2.90;;
85137;SDS011;75497;42.708;23.330;2024-02-04T01:02:25;7.15;;;2.63;;
85137;SDS011;75497;42.708;23.330;2024-02-04T01:04:50;9.63;;;3.35;;
85137;SDS011;75497;42.708;23.330;2024-02-04T01:07:16;7.18;;;2.67;;
85137;SDS011;75497;42.708;23.330;2024-02-04T01:09:42;8.93;;;3.03;;
85137;SDS011;75497;42.708;23.330;2024-02-04T01:12:07;8.52;;;3.28;;
85137;SDS011;75497;42.708;23.330;2024-02-04T01:14:33;8.90;;;3.00;;
85137;SDS011;75497;42.708;23.330;2024-02-04T01:16:59;7.63;;;2.65;;
85137;SDS011;75497;42.708;23.330;2024-02-04T01:19:24;8.63;;;3.15;;
85137;SDS011;75497;42.708;23.330;2024-02-04T01:21:50;7.55;;;3.08;;
85137;SDS011;75497;42.708;23.330;2024-02-04T01:24:15;7.38;;;3.20;;
85137;SDS011;75497;42.708;23.330;2024-02-04T01:26:41;6.65;;;2.70;;
85137;SDS011;75497;42.708;23.330;2024-02-04T01:29:06;6.97;;;2.67;;
85137;SDS011;75497;42.708;23.330;2024-02-04T01:31:32;7.60;;;3.20;;
85137;SDS011;75497;42.708;23.330;2024-02-04T01:33:58;8.20;;;3.10;;
85137;SDS011;75497;42.708;23.330;2024-02-04T01:36:23;9.60;;;3.10;;
85137;SDS011;75497;42.708;23.330;2024-02-04T01:38:49;7.53;;;3.17;;
85137;SDS011;75497;42.708;23.330;2024-02-04T01:41:14;6.43;;;2.70;;
85137;SDS011;75497;42.708;23.330;2024-02-04T01:43:40;8.30;;;3.35;;
85137;SDS011;75497;42.708;23.330;2024-02-04T01:46:06;6.78;;;2.90;;
85137;SDS011;75497;42.708;23.330;2024-02-04T01:48:32;6.22;;;1.95;;
85137;SDS011;75497;42.708;23.330;2024-02-04T01:50:58;8.90;;;3.08;;
85137;SDS011;75497;42.708;23.330;2024-02-04T01:53:25;6.05;;;2.28;;
85137;SDS011;75497;42.708;23.330;2024-02-04T01:55:51;7.65;;;3.35;;
85137;SDS011;75497;42.708;23.330;2024-02-04T01:58:17;6.68;;;2.30;;
85137;SDS011;75497;42.708;23.330;2024-02-04T02:00:43;7.18;;;2.33;;
85137;SDS011;75497;42.708;23.330;2024-02-04T02:03:10;9.40;;;2.40;;
85137;SDS011;75497;42.708;23.330;2024-02-04T02:05:37;6.95;;;3.05;;
85137;SDS011;75497;42.708;23.330;2024-02-04T02:08:04;7.80;;;2.55;;
85137;SDS011;75497;42.708;23.330;2024-02-04T02:10:30;9.15;;;2.63;;
85137;SDS011;75497;42.708;23.330;2024-02-04T02:12:57;6.25;;;2.33;;
85137;SDS011;75497;42.708;23.330;2024-02-04T02:15:30;6.03;;;2.03;;
85137;SDS011;75497;42.708;23.330;2024-02-04T02:18:10;6.28;;;2.40;;
85137;SDS011;75497;42.708;23.330;2024-02-04T02:24:04;6.53;;;2.72;;
85137;SDS011;75497;42.708;23.330;2024-02-04T02:26:36;6.35;;;2.63;;
85137;SDS011;75497;42.708;23.330;2024-02-04T02:29:05;6.40;;;2.22;;
85137;SDS011;75497;42.708;23.330;2024-02-04T02:31:34;6.68;;;2.30;;
85137;SDS011;75497;42.708;23.330;2024-02-04T02:34:01;8.50;;;2.85;;
85137;SDS011;75497;42.708;23.330;2024-02-04T02:36:27;8.27;;;2.13;;
85137;SDS011;75497;42.708;23.330;2024-02-04T02:39:08;10.05;;;3.35;;
85137;SDS011;75497;42.708;23.330;2024-02-04T02:41:38;6.40;;;2.42;;
85137;SDS011;75497;42.708;23.330;2024-02-04T02:44:07;8.02;;;3.65;;
85137;SDS011;75497;42.708;23.330;2024-02-04T02:46:34;8.95;;;2.83;;
85137;SDS011;75497;42.708;23.330;2024-02-04T02:49:00;10.10;;;3.10;;
85137;SDS011;75497;42.708;23.330;2024-02-04T02:51:26;9.55;;;3.00;;
85137;SDS011;75497;42.708;23.330;2024-02-04T02:53:51;8.95;;;3.28;;
85137;SDS011;75497;42.708;23.330;2024-02-04T02:56:17;8.38;;;3.03;;
85137;SDS011;75497;42.708;23.330;2024-02-04T02:58:42;6.90;;;2.72;;
85137;SDS011;75497;42.708;23.330;2024-02-04T03:01:08;7.95;;;3.10;;
85137;SDS011;75497;42.708;23.330;2024-02-04T03:03:34;6.35;;;2.72;;
85137;SDS011;75497;42.708;23.330;2024-02-04T03:05:59;7.35;;;2.95;;
85137;SDS011;75497;42.708;23.330;2024-02-04T03:08:24;7.45;;;2.38;;
85137;SDS011;75497;42.708;23.330;2024-02-04T03:10:50;7.78;;;2.80;;
85137;SDS011;75497;42.708;23.330;2024-02-04T03:13:15;7.22;;;2.50;;
85137;SDS011;75497;42.708;23.330;2024-02-04T03:15:41;7.25;;;2.92;;
85137;SDS011;75497;42.708;23.330;2024-02-04T03:18:07;7.55;;;3.03;;
85137;SDS011;75497;42.708;23.330;2024-02-04T03:20:33;7.35;;;2.97;;
85137;SDS011;75497;42.708;23.330;2024-02-04T03:22:59;9.88;;;2.53;;
85137;SDS011;75497;42.708;23.330;2024-02-04T03:25:24;9.02;;;2.83;;
85137;SDS011;75497;42.708;23.330;2024-02-04T03:27:51;6.40;;;2.75;;
85137;SDS011;75497;42.708;23.330;2024-02-04T03:30:18;8.07;;;2.78;;
85137;SDS011;75497;42.708;23.330;2024-02-04T03:32:43;7.65;;;3.28;;
85137;SDS011;75497;42.708;23.330;2024-02-04T03:35:09;6.57;;;2.42;;
85137;SDS011;75497;42.708;23.330;2024-02-04T03:37:34;6.97;;;2.35;;
85137;SDS011;75497;42.708;23.330;2024-02-04T03:40:00;5.85;;;2.30;;
85137;SDS011;75497;42.708;23.330;2024-02-04T03:42:25;7.70;;;2.85;;
85137;SDS011;75497;42.708;23.330;2024-02-04T03:44:51;6.70;;;3.05;;
85137;SDS011;75497;42.708;23.330;2024-02-04T03:47:16;7.05;;;2.70;;
85137;SDS011;75497;42.708;23.330;2024-02-04T03:49:42;7.15;;;2.95;;
85137;SDS011;75497;42.708;23.330;2024-02-04T03:52:07;5.72;;;2.28;;
85137;SDS011;75497;42.708;23.330;2024-02-04T03:54:33;5.82;;;2.28;;
85137;SDS011;75497;42.708;23.330;2024-02-04T03:56:58;6.50;;;2.20;;
85137;SDS011;75497;42.708;23.330;2024-02-04T03:59:24;5.82;;;2.72;;
85137;SDS011;75497;42.708;23.330;2024-02-04T04:01:49;5.75;;;2.08;;
85137;SDS011;75497;42.708;23.330;2024-02-04T04:04:16;7.65;;;2.67;;
85137;SDS011;75497;42.708;23.330;2024-02-04T04:06:42;6.40;;;2.17;;
85137;SDS011;75497;42.708;23.330;2024-02-04T04:09:09;6.15;;;2.20;;
85137;SDS011;75497;42.708;23.330;2024-02-04T04:11:35;6.60;;;2.65;;
85137;SDS011;75497;42.708;23.330;2024-02-04T04:14:01;6.18;;;2.63;;
85137;SDS011;75497;42.708;23.330;2024-02-04T04:16:26;7.72;;;2.55;;
85137;SDS011;75497;42.708;23.330;2024-02-04T04:18:52;6.53;;;2.55;;
85137;SDS011;75497;42.708;23.330;2024-02-04T04:21:18;6.82;;;2.30;;
85137;SDS011;75497;42.708;23.330;2024-02-04T04:23:43;10.57;;;3.13;;
85137;SDS011;75497;42.708;23.330;2024-02-04T04:26:09;6.38;;;2.80;;
85137;SDS011;75497;42.708;23.330;2024-02-04T04:28:35;8.77;;;2.58;;
85137;SDS011;75497;42.708;23.330;2024-02-04T04:31:01;6.00;;;2.63;;
85137;SDS011;75497;42.708;23.330;2024-02-04T04:33:26;7.93;;;2.55;;
85137;SDS011;75497;42.708;23.330;2024-02-04T04:35:52;7.22;;;2.78;;
85137;SDS011;75497;42.708;23.330;2024-02-04T04:38:18;8.68;;;3.10;;
85137;SDS011;75497;42.708;23.330;2024-02-04T04:40:43;7.63;;;2.65;;
85137;SDS011;75497;42.708;23.330;2024-02-04T04:43:09;7.38;;;2.53;;
85137;SDS011;75497;42.708;23.330;2024-02-04T04:45:34;6.82;;;2.53;;
85137;SDS011;75497;42.708;23.330;2024-02-04T04:48:00;6.53;;;2.25;;
85137;SDS011;75497;42.708;23.330;2024-02-04T04:50:25;8.73;;;2.22;;
85137;SDS011;75497;42.708;23.330;2024-02-04T04:52:51;8.35;;;2.97;;
85137;SDS011;75497;42.708;23.330;2024-02-04T04:55:16;6.00;;;2.60;;
85137;SDS011;75497;42.708;23.330;2024-02-04T04:57:42;7.22;;;2.53;;
85137;SDS011;75497;42.708;23.330;2024-02-04T05:00:08;7.15;;;2.42;;
85137;SDS011;75497;42.708;23.330;2024-02-04T05:02:39;7.45;;;2.88;;
85137;SDS011;75497;42.708;23.330;2024-02-04T05:05:05;5.82;;;2.60;;
85137;SDS011;75497;42.708;23.330;2024-02-04T05:07:31;6.72;;;2.83;;
85137;SDS011;75497;42.708;23.330;2024-02-04T05:09:56;6.05;;;2.63;;
85137;SDS011;75497;42.708;23.330;2024-02-04T05:12:22;6.18;;;2.80;;
85137;SDS011;75497;42.708;23.330;2024-02-04T05:14:48;7.07;;;2.63;;
85137;SDS011;75497;42.708;23.330;2024-02-04T05:17:14;7.30;;;2.90;;
85137;SDS011;75497;42.708;23.330;2024-02-04T05:19:43;7.60;;;3.40;;
85137;SDS011;75497;42.708;23.330;2024-02-04T05:22:08;6.22;;;2.60;;
85137;SDS011;75497;42.708;23.330;2024-02-04T05:24:34;7.75;;;2.83;;
85137;SDS011;75497;42.708;23.330;2024-02-04T05:27:00;6.65;;;2.75;;
85137;SDS011;75497;42.708;23.330;2024-02-04T05:29:25;6.82;;;2.33;;
85137;SDS011;75497;42.708;23.330;2024-02-04T05:31:51;8.18;;;3.15;;
85137;SDS011;75497;42.708;23.330;2024-02-04T05:34:16;6.32;;;2.63;;
85137;SDS011;75497;42.708;23.330;2024-02-04T05:36:42;9.15;;;3.20;;
85137;SDS011;75497;42.708;23.330;2024-02-04T05:39:14;7.40;;;2.45;;
85137;SDS011;75497;42.708;23.330;2024-02-04T05:41:40;6.60;;;2.72;;
85137;SDS011;75497;42.708;23.330;2024-02-04T05:44:07;7.97;;;3.45;;
85137;SDS011;75497;42.708;23.330;2024-02-04T05:46:36;9.50;;;3.25;;
85137;SDS011;75497;42.708;23.330;2024-02-04T05:49:02;9.57;;;4.22;;
85137;SDS011;75497;42.708;23.330;2024-02-04T05:51:27;10.20;;;3.10;;
85137;SDS011;75497;42.708;23.330;2024-02-04T05:53:53;8.27;;;3.65;;
85137;SDS011;75497;42.708;23.330;2024-02-04T05:56:19;11.95;;;3.78;;
85137;SDS011;75497;42.708;23.330;2024-02-04T05:58:45;10.90;;;4.05;;
85137;SDS011;75497;42.708;23.330;2024-02-04T06:01:11;10.20;;;4.65;;
85137;SDS011;75497;42.708;23.330;2024-02-04T06:03:36;10.57;;;4.15;;
85137;SDS011;75497;42.708;23.330;2024-02-04T06:06:02;10.30;;;4.80;;
85137;SDS011;75497;42.708;23.330;2024-02-04T06:08:27;11.63;;;4.55;;
85137;SDS011;75497;42.708;23.330;2024-02-04T06:10:53;9.77;;;4.15;;
85137;SDS011;75497;42.708;23.330;2024-02-04T06:13:18;9.82;;;4.18;;
85137;SDS011;75497;42.708;23.330;2024-02-04T06:15:44;10.70;;;4.85;;
85137;SDS011;75497;42.708;23.330;2024-02-04T06:18:10;11.00;;;3.97;;
85137;SDS011;75497;42.708;23.330;2024-02-04T06:20:35;8.98;;;3.50;;
85137;SDS011;75497;42.708;23.330;2024-02-04T06:23:00;12.00;;;5.05;;
85137;SDS011;75497;42.708;23.330;2024-02-04T06:25:26;11.93;;;4.72;;
85137;SDS011;75497;42.708;23.330;2024-02-04T06:27:52;10.07;;;4.75;;
85137;SDS011;75497;42.708;23.330;2024-02-04T06:30:17;9.20;;;4.22;;
85137;SDS011;75497;42.708;23.330;2024-02-04T06:32:43;9.02;;;3.60;;
85137;SDS011;75497;42.708;23.330;2024-02-04T06:35:08;9.80;;;4.18;;
85137;SDS011;75497;42.708;23.330;2024-02-04T06:37:33;9.40;;;3.40;;
85137;SDS011;75497;42.708;23.330;2024-02-04T06:39:59;13.70;;;4.20;;
85137;SDS011;75497;42.708;23.330;2024-02-04T06:42:24;11.02;;;3.47;;
85137;SDS011;75497;42.708;23.330;2024-02-04T06:44:50;11.73;;;4.10;;
85137;SDS011;75497;42.708;23.330;2024-02-04T06:47:15;12.98;;;3.78;;
85137;SDS011;75497;42.708;23.330;2024-02-04T06:49:44;9.65;;;3.55;;
85137;SDS011;75497;42.708;23.330;2024-02-04T06:52:13;8.00;;;2.97;;
85137;SDS011;75497;42.708;23.330;2024-02-04T06:54:38;7.30;;;3.17;;
85137;SDS011;75497;42.708;23.330;2024-02-04T06:57:04;9.32;;;3.17;;
85137;SDS011;75497;42.708;23.330;2024-02-04T06:59:29;7.53;;;3.38;;
85137;SDS011;75497;42.708;23.330;2024-02-04T07:01:55;5.50;;;2.25;;
85137;SDS011;75497;42.708;23.330;2024-02-04T07:04:20;7.72;;;3.05;;
85137;SDS011;75497;42.708;23.330;2024-02-04T07:06:52;10.45;;;3.10;;
85137;SDS011;75497;42.708;23.330;2024-02-04T07:09:17;8.63;;;2.80;;
85137;SDS011;75497;42.708;23.330;2024-02-04T07:11:43;5.65;;;2.33;;
85137;SDS011;75497;42.708;23.330;2024-02-04T07:14:09;7.95;;;3.15;;
85137;SDS011;75497;42.708;23.330;2024-02-04T07:16:34;6.97;;;2.65;;
85137;SDS011;75497;42.708;23.330;2024-02-04T07:19:00;9.52;;;2.53;;
85137;SDS011;75497;42.708;23.330;2024-02-04T07:21:25;7.88;;;2.70;;
85137;SDS011;75497;42.708;23.330;2024-02-04T07:23:51;9.15;;;3.42;;
85137;SDS011;75497;42.708;23.330;2024-02-04T07:26:16;7.50;;;3.05;;
85137;SDS011;75497;42.708;23.330;2024-02-04T07:28:42;7.95;;;2.22;;
85137;SDS011;75497;42.708;23.330;2024-02-04T07:31:07;6.75;;;2.00;;
85137;SDS011;75497;42.708;23.330;2024-02-04T07:33:33;7.28;;;3.47;;
85137;SDS011;75497;42.708;23.330;2024-02-04T07:35:58;7.43;;;2.95;;
85137;SDS011;75497;42.708;23.330;2024-02-04T07:38:24;8.13;;;2.78;;
85137;SDS011;75497;42.708;23.330;2024-02-04T07:40:50;9.18;;;2.72;;
85137;SDS011;75497;42.708;23.330;2024-02-04T07:43:15;6.78;;;2.58;;
85137;SDS011;75497;42.708;23.330;2024-02-04T07:45:41;6.88;;;2.45;;
85137;SDS011;75497;42.708;23.330;2024-02-04T07:48:07;7.22;;;2.83;;
85137;SDS011;75497;42.708;23.330;2024-02-04T07:50:34;7.97;;;2.03;;
85137;SDS011;75497;42.708;23.330;2024-02-04T07:53:00;6.72;;;3.05;;
85137;SDS011;75497;42.708;23.330;2024-02-04T07:55:25;9.13;;;2.47;;
85137;SDS011;75497;42.708;23.330;2024-02-04T07:57:51;7.95;;;2.78;;
85137;SDS011;75497;42.708;23.330;2024-02-04T08:00:16;6.18;;;2.30;;
85137;SDS011;75497;42.708;23.330;2024-02-04T08:02:44;7.75;;;2.80;;
85137;SDS011;75497;42.708;23.330;2024-02-04T08:05:10;8.93;;;3.05;;
85137;SDS011;75497;42.708;23.330;2024-02-04T08:07:35;8.35;;;2.72;;
85137;SDS011;75497;42.708;23.330;2024-02-04T08:10:01;7.55;;;2.78;;
85137;SDS011;75497;42.708;23.330;2024-02-04T08:12:27;8.63;;;3.28;;
85137;SDS011;75497;42.708;23.330;2024-02-04T08:14:52;6.15;;;2.53;;
85137;SDS011;75497;42.708;23.330;2024-02-04T08:17:18;7.55;;;2.85;;
85137;SDS011;75497;42.708;23.330;2024-02-04T08:19:43;5.95;;;2.22;;
85137;SDS011;75497;42.708;23.330;2024-02-04T08:22:09;7.65;;;2.45;;
85137;SDS011;75497;42.708;23.330;2024-02-04T08:24:34;6.07;;;1.85;;
85137;SDS011;75497;42.708;23.330;2024-02-04T08:27:01;6.65;;;2.22;;
85137;SDS011;75497;42.708;23.330;2024-02-04T08:29:26;6.00;;;2.47;;
85137;SDS011;75497;42.708;23.330;2024-02-04T08:31:52;8.50;;;2.28;;
85137;SDS011;75497;42.708;23.330;2024-02-04T08:34:18;7.97;;;2.45;;
85137;SDS011;75497;42.708;23.330;2024-02-04T08:36:46;6.78;;;2.28;;
85137;SDS011;75497;42.708;23.330;2024-02-04T08:39:12;7.57;;;2.30;;
85137;SDS011;75497;42.708;23.330;2024-02-04T08:41:37;4.60;;;1.60;;
85137;SDS011;75497;42.708;23.330;2024-02-04T08:44:03;7.63;;;1.92;;
85137;SDS011;75497;42.708;23.330;2024-02-04T08:46:28;9.07;;;1.80;;
85137;SDS011;75497;42.708;23.330;2024-02-04T08:48:54;6.00;;;1.98;;
85137;SDS011;75497;42.708;23.330;2024-02-04T08:51:19;5.90;;;1.90;;
85137;SDS011;75497;42.708;23.330;2024-02-04T08:53:45;4.50;;;1.77;;
85137;SDS011;75497;42.708;23.330;2024-02-04T08:56:10;8.82;;;1.70;;
85137;SDS011;75497;42.708;23.330;2024-02-04T08:58:36;6.53;;;1.48;;
85137;SDS011;75497;42.708;23.330;2024-02-04T09:01:05;10.52;;;1.33;;
85137;SDS011;75497;42.708;23.330;2024-02-04T09:03:31;4.65;;;1.38;;
85137;SDS011;75497;42.708;23.330;2024-02-04T09:05:57;4.43;;;1.27;;
85137;SDS011;75497;42.708;23.330;2024-02-04T09:08:22;6.38;;;2.00;;
85137;SDS011;75497;42.708;23.330;2024-02-04T09:10:48;5.60;;;1.55;;
85137;SDS011;75497;42.708;23.330;2024-02-04T09:13:14;4.88;;;1.20;;
85137;SDS011;75497;42.708;23.330;2024-02-04T09:15:39;4.80;;;1.15;;
85137;SDS011;75497;42.708;23.330;2024-02-04T09:18:05;6.20;;;1.60;;
85137;SDS011;75497;42.708;23.330;2024-02-04T09:20:30;4.75;;;1.25;;
85137;SDS011;75497;42.708;23.330;2024-02-04T09:22:56;5.80;;;1.63;;
85137;SDS011;75497;42.708;23.330;2024-02-04T09:25:21;5.75;;;1.80;;
85137;SDS011;75497;42.708;23.330;2024-02-04T09:27:47;4.68;;;1.50;;
85137;SDS011;75497;42.708;23.330;2024-02-04T09:30:12;6.65;;;1.50;;
85137;SDS011;75497;42.708;23.330;2024-02-04T09:32:38;12.60;;;1.60;;
85137;SDS011;75497;42.708;23.330;2024-02-04T09:35:04;7.57;;;1.88;;
85137;SDS011;75497;42.708;23.330;2024-02-04T09:37:29;7.32;;;1.92;;
85137;SDS011;75497;42.708;23.330;2024-02-04T09:39:55;4.43;;;1.42;;
85137;SDS011;75497;42.708;23.330;2024-02-04T09:42:21;5.35;;;1.42;;
85137;SDS011;75497;42.708;23.330;2024-02-04T09:44:48;7.03;;;1.77;;
85137;SDS011;75497;42.708;23.330;2024-02-04T09:47:14;5.85;;;1.88;;
85137;SDS011;75497;42.708;23.330;2024-02-04T09:49:40;6.28;;;2.28;;
85137;SDS011;75497;42.708;23.330;2024-02-04T09:52:09;7.03;;;1.90;;
85137;SDS011;75497;42.708;23.330;2024-02-04T09:54:38;4.80;;;1.75;;
85137;SDS011;75497;42.708;23.330;2024-02-04T09:57:11;6.95;;;2.00;;
85137;SDS011;75497;42.708;23.330;2024-02-04T09:59:38;7.90;;;2.05;;
85137;SDS011;75497;42.708;23.330;2024-02-04T10:02:04;5.88;;;1.67;;
85137;SDS011;75497;42.708;23.330;2024-02-04T10:04:30;4.70;;;1.70;;
85137;SDS011;75497;42.708;23.330;2024-02-04T10:06:56;6.22;;;1.40;;
85137;SDS011;75497;42.708;23.330;2024-02-04T10:09:22;9.27;;;1.80;;
85137;SDS011;75497;42.708;23.330;2024-02-04T10:11:47;5.35;;;1.40;;
85137;SDS011;75497;42.708;23.330;2024-02-04T10:14:13;4.38;;;1.38;;
85137;SDS011;75497;42.708;23.330;2024-02-04T10:16:39;5.88;;;2.00;;
85137;SDS011;75497;42.708;23.330;2024-02-04T10:19:05;6.50;;;1.80;;
85137;SDS011;75497;42.708;23.330;2024-02-04T10:21:31;4.70;;;1.40;;
85137;SDS011;75497;42.708;23.330;2024-02-04T10:23:56;4.90;;;1.38;;
85137;SDS011;75497;42.708;23.330;2024-02-04T10:26:22;10.05;;;2.00;;
85137;SDS011;75497;42.708;23.330;2024-02-04T10:28:48;6.20;;;1.70;;
85137;SDS011;75497;42.708;23.330;2024-02-04T10:31:14;5.15;;;1.65;;
85137;SDS011;75497;42.708;23.330;2024-02-04T10:33:40;5.60;;;1.75;;
85137;SDS011;75497;42.708;23.330;2024-02-04T10:36:06;7.00;;;1.15;;
85137;SDS011;75497;42.708;23.330;2024-02-04T10:38:32;7.55;;;1.67;;
85137;SDS011;75497;42.708;23.330;2024-02-04T10:40:59;6.80;;;1.15;;
85137;SDS011;75497;42.708;23.330;2024-02-04T10:43:30;5.22;;;1.63;;
85137;SDS011;75497;42.708;23.330;2024-02-04T10:45:59;5.03;;;1.10;;
85137;SDS011;75497;42.708;23.330;2024-02-04T10:48:27;7.72;;;1.42;;
85137;SDS011;75497;42.708;23.330;2024-02-04T10:51:03;6.32;;;1.35;;
85137;SDS011;75497;42.708;23.330;2024-02-04T10:53:29;5.97;;;1.23;;
85137;SDS011;75497;42.708;23.330;2024-02-04T10:55:55;5.13;;;1.20;;
85137;SDS011;75497;42.708;23.330;2024-02-04T10:58:28;4.38;;;1.30;;
85137;SDS011;75497;42.708;23.330;2024-02-04T11:00:54;5.57;;;1.45;;
85137;SDS011;75497;42.708;23.330;2024-02-04T11:03:21;5.45;;;1.40;;
85137;SDS011;75497;42.708;23.330;2024-02-04T11:05:46;4.90;;;0.95;;
85137;SDS011;75497;42.708;23.330;2024-02-04T11:08:15;5.30;;;1.27;;
85137;SDS011;75497;42.708;23.330;2024-02-04T11:10:40;3.90;;;1.17;;
85137;SDS011;75497;42.708;23.330;2024-02-04T11:13:06;3.72;;;1.17;;
85137;SDS011;75497;42.708;23.330;2024-02-04T11:15:35;4.57;;;1.10;;
85137;SDS011;75497;42.708;23.330;2024-02-04T11:18:09;5.47;;;1.10;;
85137;SDS011;75497;42.708;23.330;2024-02-04T11:26:40;3.97;;;1.05;;
85137;SDS011;75497;42.708;23.330;2024-02-04T11:29:06;4.75;;;0.93;;
85137;SDS011;75497;42.708;23.330;2024-02-04T11:31:32;5.05;;;1.50;;
85137;SDS011;75497;42.708;23.330;2024-02-04T11:33:58;5.45;;;1.48;;
85137;SDS011;75497;42.708;23.330;2024-02-04T11:36:24;5.07;;;1.50;;
85137;SDS011;75497;42.708;23.330;2024-02-04T11:38:50;4.95;;;1.65;;
85137;SDS011;75497;42.708;23.330;2024-02-04T11:41:25;7.22;;;1.85;;
85137;SDS011;75497;42.708;23.330;2024-02-04T11:43:56;6.90;;;1.48;;
85137;SDS011;75497;42.708;23.330;2024-02-04T11:46:27;5.50;;;1.73;;
85137;SDS011;75497;42.708;23.330;2024-02-04T11:48:55;4.95;;;1.30;;
85137;SDS011;75497;42.708;23.330;2024-02-04T11:51:23;5.45;;;1.88;;
85137;SDS011;75497;42.708;23.330;2024-02-04T11:53:50;5.28;;;1.42;;
85137;SDS011;75497;42.708;23.330;2024-02-04T11:56:17;6.93;;;1.50;;
85137;SDS011;75497;42.708;23.330;2024-02-04T11:58:43;5.20;;;1.25;;
85137;SDS011;75497;42.708;23.330;2024-02-04T12:01:10;4.30;;;1.40;;
85137;SDS011;75497;42.708;23.330;2024-02-04T12:03:36;4.07;;;1.05;;
85137;SDS011;75497;42.708;23.330;2024-02-04T12:06:04;5.30;;;1.55;;
85137;SDS011;75497;42.708;23.330;2024-02-04T12:08:31;4.20;;;1.30;;
85137;SDS011;75497;42.708;23.330;2024-02-04T12:10:58;4.65;;;1.35;;
85137;SDS011;75497;42.708;23.330;2024-02-04T12:13:43;3.88;;;0.95;;
85137;SDS011;75497;42.708;23.330;2024-02-04T12:16:10;5.28;;;1.23;;
85137;SDS011;75497;42.708;23.330;2024-02-04T12:18:35;4.97;;;1.67;;
85137;SDS011;75497;42.708;23.330;2024-02-04T12:21:01;4.97;;;1.27;;
85137;SDS011;75497;42.708;23.330;2024-02-04T12:23:26;4.50;;;1.90;;
85137;SDS011;75497;42.708;23.330;2024-02-04T12:25:54;4.22;;;1.60;;
85137;SDS011;75497;42.708;23.330;2024-02-04T12:28:19;7.40;;;2.00;;
85137;SDS011;75497;42.708;23.330;2024-02-04T12:30:55;4.63;;;1.50;;
85137;SDS011;75497;42.708;23.330;2024-02-04T12:33:20;5.30;;;2.17;;
85137;SDS011;75497;42.708;23.330;2024-02-04T12:35:50;6.78;;;1.60;;
85137;SDS011;75497;42.708;23.330;2024-02-04T12:38:16;6.07;;;2.20;;
85137;SDS011;75497;42.708;23.330;2024-02-04T12:40:45;8.20;;;1.98;;
85137;SDS011;75497;42.708;23.330;2024-02-04T12:43:11;4.50;;;1.55;;
85137;SDS011;75497;42.708;23.330;2024-02-04T12:45:37;3.95;;;1.40;;
85137;SDS011;75497;42.708;23.330;2024-02-04T12:48:02;4.20;;;1.70;;
85137;SDS011;75497;42.708;23.330;2024-02-04T12:50:28;10.05;;;2.63;;
85137;SDS011;75497;42.708;23.330;2024-02-04T12:53:02;6.50;;;1.88;;
85137;SDS011;75497;42.708;23.330;2024-02-04T12:55:28;5.50;;;2.15;;
85137;SDS011;75497;42.708;23.330;2024-02-04T12:58:06;4.90;;;1.60;;
85137;SDS011;75497;42.708;23.330;2024-02-04T13:00:34;5.72;;;1.70;;
85137;SDS011;75497;42.708;23.330;2024-02-04T13:03:02;4.63;;;1.50;;
85137;SDS011;75497;42.708;23.330;2024-02-04T13:05:29;4.53;;;1.50;;
85137;SDS011;75497;42.708;23.330;2024-02-04T13:07:59;9.60;;;1.88;;
85137;SDS011;75497;42.708;23.330;2024-02-04T13:10:30;8.98;;;2.60;;
85137;SDS011;75497;42.708;23.330;2024-02-04T13:12:59;7.40;;;1.83;;
85137;SDS011;75497;42.708;23.330;2024-02-04T13:15:31;5.32;;;1.60;;
85137;SDS011;75497;42.708;23.330;2024-02-04T13:17:57;9.05;;;1.50;;
85137;SDS011;75497;42.708;23.330;2024-02-04T13:20:24;6.63;;;1.75;;
85137;SDS011;75497;42.708;23.330;2024-02-04T13:22:50;4.63;;;1.20;;
85137;SDS011;75497;42.708;23.330;2024-02-04T13:25:19;5.93;;;1.58;;
85137;SDS011;75497;42.708;23.330;2024-02-04T13:27:45;9.60;;;2.05;;
85137;SDS011;75497;42.708;23.330;2024-02-04T13:30:12;5.32;;;1.60;;
85137;SDS011;75497;42.708;23.330;2024-02-04T13:32:41;8.15;;;2.13;;
85137;SDS011;75497;42.708;23.330;2024-02-04T13:35:07;6.03;;;1.67;;
85137;SDS011;75497;42.708;23.330;2024-02-04T13:37:55;10.32;;;2.38;;
85137;SDS011;75497;42.708;23.330;2024-02-04T13:40:20;4.85;;;1.92;;
85137;SDS011;75497;42.708;23.330;2024-02-04T13:42:48;4.63;;;1.45;;
85137;SDS011;75497;42.708;23.330;2024-02-04T13:45:14;4.47;;;1.33;;
85137;SDS011;75497;42.708;23.330;2024-02-04T13:47:39;4.22;;;1.58;;
85137;SDS011;75497;42.708;23.330;2024-02-04T13:50:06;4.65;;;1.55;;
85137;SDS011;75497;42.708;23.330;2024-02-04T13:52:33;6.10;;;2.08;;
85137;SDS011;75497;42.708;23.330;2024-02-04T13:54:59;4.45;;;1.13;;
85137;SDS011;75497;42.708;23.330;2024-02-04T13:57:25;4.93;;;1.60;;
85137;SDS011;75497;42.708;23.330;2024-02-04T13:59:50;4.75;;;1.50;;
85137;SDS011;75497;42.708;23.330;2024-02-04T14:02:16;4.50;;;1.42;;
85137;SDS011;75497;42.708;23.330;2024-02-04T14:04:41;4.25;;;1.20;;
85137;SDS011;75497;42.708;23.330;2024-02-04T14:07:07;6.63;;;1.52;;
85137;SDS011;75497;42.708;23.330;2024-02-04T14:09:33;4.32;;;1.40;;
85137;SDS011;75497;42.708;23.330;2024-02-04T14:11:59;5.05;;;1.30;;
85137;SDS011;75497;42.708;23.330;2024-02-04T14:14:25;6.10;;;1.38;;
85137;SDS011;75497;42.708;23.330;2024-02-04T14:16:51;5.72;;;1.58;;
85137;SDS011;75497;42.708;23.330;2024-02-04T14:19:16;5.70;;;2.05;;
85137;SDS011;75497;42.708;23.330;2024-02-04T14:21:42;5.72;;;1.90;;
85137;SDS011;75497;42.708;23.330;2024-02-04T14:24:08;5.20;;;1.45;;
85137;SDS011;75497;42.708;23.330;2024-02-04T14:26:34;6.93;;;2.05;;
85137;SDS011;75497;42.708;23.330;2024-02-04T14:29:00;4.78;;;1.63;;
85137;SDS011;75497;42.708;23.330;2024-02-04T14:31:25;5.90;;;1.25;;
85137;SDS011;75497;42.708;23.330;2024-02-04T14:33:51;4.63;;;1.40;;
85137;SDS011;75497;42.708;23.330;2024-02-04T14:36:16;4.80;;;1.75;;
85137;SDS011;75497;42.708;23.330;2024-02-04T14:38:42;5.95;;;1.63;;